Time;durP1;ratioP1;P1;durP2;ratioP2;P2;SDS_P1;SDS_P2;PMS_P1;PMS_P2;Temp;Humidity;BMP_temperature;BMP_pressure;BME280_temperature;BME280_humidity;BME280_pressure;Samples;Min_cycle;Max_cycle;Signal;HPM_P1;HPM_P2
2022/11/20 00:00:40;;;;;;;14.48;6.65;;;1.60;72.60;;;;;;5115699;28;20098;-73
2022/11/20 00:03:06;;;;;;;16.33;7.40;;;1.50;72.90;;;;;;5115590;28;20036;-73
2022/11/20 00:05:34;;;;;;;17.95;7.70;;;1.60;72.90;;;;;;5115471;28;20051;-73
2022/11/20 00:08:00;;;;;;;18.55;8.00;;;1.60;73.00;;;;;;5114450;28;20031;-73
2022/11/20 00:10:26;;;;;;;20.58;8.43;;;1.60;73.10;;;;;;5115522;28;20016;-74
2022/11/20 00:12:52;;;;;;;24.17;7.97;;;1.70;73.00;;;;;;5097734;28;20012;-73
2022/11/20 00:15:17;;;;;;;15.52;7.95;;;1.70;72.80;;;;;;5115379;28;20036;-73
2022/11/20 00:17:43;;;;;;;19.13;8.68;;;1.70;72.80;;;;;;5115346;28;20035;-73
2022/11/20 00:20:09;;;;;;;17.48;8.32;;;1.70;72.70;;;;;;5115425;28;20032;-73
2022/11/20 00:22:35;;;;;;;16.80;8.90;;;1.60;72.90;;;;;;5114302;28;20028;-73
2022/11/20 00:25:00;;;;;;;15.48;7.80;;;1.70;72.90;;;;;;5115151;28;20078;-73
2022/11/20 00:27:26;;;;;;;18.30;8.85;;;1.60;73.10;;;;;;5114222;28;20024;-73
2022/11/20 00:29:51;;;;;;;18.13;8.63;;;1.60;73.00;;;;;;5114102;28;20043;-73
2022/11/20 00:32:17;;;;;;;18.90;8.85;;;1.70;72.70;;;;;;5115066;28;20032;-73
2022/11/20 00:34:43;;;;;;;19.52;9.07;;;1.60;72.60;;;;;;5097129;28;20031;-73
2022/11/20 00:37:08;;;;;;;19.27;9.63;;;1.60;73.10;;;;;;5114943;28;20039;-74
2022/11/20 00:39:35;;;;;;;16.08;8.52;;;1.60;73.00;;;;;;5114938;28;20024;-73
2022/11/20 00:42:00;;;;;;;17.17;8.27;;;1.60;73.10;;;;;;5114033;28;20043;-73
2022/11/20 00:44:26;;;;;;;19.70;8.88;;;1.50;73.00;;;;;;5114795;28;20036;-73
2022/11/20 00:46:52;;;;;;;19.42;8.70;;;1.60;73.10;;;;;;5114794;28;20044;-73
2022/11/20 00:49:17;;;;;;;17.30;8.07;;;1.60;72.90;;;;;;5114769;28;20055;-73
2022/11/20 00:51:43;;;;;;;17.25;7.72;;;1.50;73.00;;;;;;5114723;28;20028;-73
2022/11/20 00:54:08;;;;;;;17.42;8.25;;;1.60;73.00;;;;;;5114700;28;20031;-73
2022/11/20 00:56:34;;;;;;;15.10;7.40;;;1.50;72.60;;;;;;5114617;28;20039;-73
2022/11/20 00:59:00;;;;;;;13.43;7.55;;;1.40;73.40;;;;;;5114593;28;20036;-73
2022/11/20 01:01:29;;;;;;;19.42;8.05;;;1.30;73.70;;;;;;5096650;28;20028;-73
2022/11/20 01:03:58;;;;;;;17.23;7.72;;;1.30;73.80;;;;;;5114235;28;20028;-73
2022/11/20 01:06:29;;;;;;;14.48;7.45;;;1.30;73.90;;;;;;5113544;28;20062;-73
2022/11/20 01:08:58;;;;;;;18.13;7.85;;;1.20;73.70;;;;;;5114369;28;20020;-73
2022/11/20 01:11:26;;;;;;;18.25;8.07;;;1.10;74.00;;;;;;5114376;28;20044;-73
2022/11/20 01:13:54;;;;;;;17.55;7.95;;;1.10;74.20;;;;;;5114282;28;20027;-73
2022/11/20 01:16:26;;;;;;;17.75;8.23;;;1.20;74.10;;;;;;5113297;28;20091;-73
2022/11/20 01:18:53;;;;;;;14.43;7.47;;;1.20;74.80;;;;;;5113305;28;20154;-73
2022/11/20 01:21:22;;;;;;;14.75;7.30;;;1.20;73.90;;;;;;5113162;28;20040;-73
2022/11/20 01:23:49;;;;;;;15.23;7.25;;;1.20;74.10;;;;;;5113043;28;20051;-73
2022/11/20 01:26:21;;;;;;;20.00;7.47;;;1.20;73.90;;;;;;5113044;28;20028;-73
2022/11/20 01:28:48;;;;;;;16.83;7.68;;;1.20;73.80;;;;;;5113377;28;20043;-73
2022/11/20 01:31:16;;;;;;;16.13;7.38;;;1.30;73.70;;;;;;5114006;28;20028;-73
2022/11/20 01:33:43;;;;;;;13.70;7.30;;;1.30;73.60;;;;;;5113576;28;20028;-73
2022/11/20 01:36:09;;;;;;;16.02;7.43;;;1.30;73.60;;;;;;5112868;28;20031;-73
2022/11/20 01:38:35;;;;;;;14.45;7.05;;;1.20;73.90;;;;;;5113906;28;20028;-73
2022/11/20 01:41:01;;;;;;;16.95;7.47;;;1.20;73.90;;;;;;5095919;28;20028;-73
2022/11/20 01:43:28;;;;;;;12.48;7.13;;;1.20;73.60;;;;;;5112793;28;20032;-73
2022/11/20 01:46:18;;;;;;;16.00;6.82;;;1.20;73.70;;;;;;5112856;28;20084;-73
2022/11/20 01:48:44;;;;;;;16.20;7.65;;;1.20;73.90;;;;;;5113792;28;20084;-73
2022/11/20 01:51:34;;;;;;;12.52;5.97;;;1.20;73.60;;;;;;5112688;28;20024;-73
2022/11/20 01:54:04;;;;;;;14.50;6.50;;;1.20;73.60;;;;;;5112709;28;20028;-73
2022/11/20 01:56:33;;;;;;;14.52;6.38;;;1.10;73.80;;;;;;5113662;28;20044;-73
2022/11/20 01:59:03;;;;;;;14.02;6.95;;;1.10;73.90;;;;;;5113628;28;20034;-73
2022/11/20 02:01:29;;;;;;;14.25;6.65;;;1.10;73.80;;;;;;5113656;28;20051;-73
2022/11/20 02:03:57;;;;;;;11.85;6.47;;;1.10;73.70;;;;;;5113285;28;20035;-74
2022/11/20 02:06:35;;;;;;;13.43;7.38;;;1.00;73.80;;;;;;5113581;28;20028;-73
2022/11/20 02:09:01;;;;;;;12.85;6.45;;;1.00;74.00;;;;;;5113455;28;20031;-73
2022/11/20 02:11:29;;;;;;;17.48;7.40;;;0.90;74.30;;;;;;5113498;28;20016;-73
2022/11/20 02:13:55;;;;;;;14.27;6.78;;;0.90;74.50;;;;;;5113470;28;20028;-73
2022/11/20 02:16:21;;;;;;;14.40;6.97;;;1.00;74.50;;;;;;5113469;28;20028;-73
2022/11/20 02:18:47;;;;;;;15.45;6.57;;;1.00;74.30;;;;;;5112351;28;20059;-73
2022/11/20 02:21:36;;;;;;;12.13;5.93;;;1.00;74.00;;;;;;5113529;28;20035;-73
2022/11/20 02:24:14;;;;;;;14.68;6.78;;;1.00;74.80;;;;;;5113374;28;20024;-73
2022/11/20 02:26:48;;;;;;;9.80;5.47;;;1.00;73.90;;;;;;5113385;28;20024;-73
2022/11/20 02:29:23;;;;;;;14.48;6.43;;;0.90;73.70;;;;;;5113400;28;20083;-73
2022/11/20 02:31:48;;;;;;;13.98;6.30;;;0.80;74.00;;;;;;5112340;28;20027;-73
2022/11/20 02:34:14;;;;;;;13.88;5.72;;;0.70;74.40;;;;;;5112361;28;20050;-73
2022/11/20 02:36:42;;;;;;;13.07;6.32;;;0.70;74.50;;;;;;5112255;28;20036;-73
2022/11/20 02:39:09;;;;;;;14.15;6.57;;;0.60;74.40;;;;;;5112350;28;20036;-73
2022/11/20 02:41:36;;;;;;;13.43;6.82;;;0.60;74.80;;;;;;5113281;28;20115;-73
2022/11/20 02:44:04;;;;;;;14.13;6.70;;;0.60;74.60;;;;;;5113093;28;20048;-73
2022/11/20 02:46:30;;;;;;;14.23;6.70;;;0.70;74.40;;;;;;5114631;28;20073;-73
2022/11/20 02:48:56;;;;;;;13.55;6.72;;;0.60;74.10;;;;;;5117112;28;20024;-73
2022/11/20 02:51:22;;;;;;;14.13;6.07;;;0.60;74.30;;;;;;5116207;28;20032;-73
2022/11/20 02:53:47;;;;;;;12.35;5.88;;;0.60;74.30;;;;;;5117045;28;20028;-73
2022/11/20 02:56:13;;;;;;;13.60;5.72;;;0.50;74.40;;;;;;5116049;28;20043;-73
2022/11/20 02:58:39;;;;;;;12.90;6.38;;;0.50;74.40;;;;;;5116927;28;20024;-73
2022/11/20 03:01:05;;;;;;;16.67;6.22;;;0.60;74.10;;;;;;5116893;28;20036;-73
2022/11/20 03:03:30;;;;;;;10.93;5.38;;;0.60;73.70;;;;;;5115804;28;20110;-73
2022/11/20 03:05:58;;;;;;;15.18;7.10;;;0.60;72.90;;;;;;5115556;28;20085;-73
2022/11/20 03:08:24;;;;;;;13.32;5.60;;;0.50;73.40;;;;;;5116658;28;20047;-73
2022/11/20 03:10:49;;;;;;;10.52;5.60;;;0.50;73.20;;;;;;5116701;28;20051;-73
2022/11/20 03:13:15;;;;;;;15.63;6.22;;;0.40;73.40;;;;;;5116660;28;20032;-73
2022/11/20 03:15:41;;;;;;;11.43;5.63;;;0.40;73.50;;;;;;5116741;28;20046;-73
2022/11/20 03:18:06;;;;;;;13.38;6.47;;;0.30;73.70;;;;;;5115693;28;20036;-73
2022/11/20 03:20:33;;;;;;;15.90;6.75;;;0.30;74.10;;;;;;5116631;28;20029;-73
2022/11/20 03:22:59;;;;;;;11.40;5.85;;;0.20;74.10;;;;;;5115450;28;20017;-73
2022/11/20 03:25:25;;;;;;;15.38;6.75;;;0.20;74.50;;;;;;5115384;28;20027;-73
2022/11/20 03:27:51;;;;;;;12.45;5.60;;;0.10;74.50;;;;;;5116319;28;20032;-73
2022/11/20 03:30:16;;;;;;;14.43;6.78;;;0.10;75.20;;;;;;5115600;28;20020;-73
2022/11/20 03:32:42;;;;;;;12.63;5.57;;;0.10;75.20;;;;;;5115381;28;20025;-73
2022/11/20 03:35:08;;;;;;;12.45;6.65;;;0.20;75.10;;;;;;5116237;28;20059;-73
2022/11/20 03:37:34;;;;;;;13.88;5.80;;;0.20;75.00;;;;;;5116194;28;20032;-73
2022/11/20 03:39:59;;;;;;;12.07;6.03;;;0.30;74.90;;;;;;5116097;28;20111;-73
2022/11/20 03:45:09;;;;;;;13.35;7.38;;;0.10;74.80;;;;;;5116135;28;20035;-73
2022/11/20 03:47:35;;;;;;;9.75;5.15;;;0.10;74.70;;;;;;5115975;28;20047;-73
2022/11/20 03:50:00;;;;;;;13.00;6.57;;;0.20;75.60;;;;;;5115018;28;20036;-73
2022/11/20 03:52:26;;;;;;;13.60;5.65;;;0.20;74.40;;;;;;5115907;28;20020;-73
2022/11/20 03:54:51;;;;;;;13.82;6.10;;;0.30;74.50;;;;;;5115853;28;20111;-73
2022/11/20 03:57:17;;;;;;;13.55;6.18;;;0.20;74.30;;;;;;5097564;28;20031;-73
2022/11/20 03:59:42;;;;;;;14.27;6.18;;;0.20;74.60;;;;;;5115877;28;20024;-73
2022/11/20 04:02:08;;;;;;;12.77;5.80;;;0.20;74.60;;;;;;5115676;28;20040;-73
2022/11/20 04:04:34;;;;;;;13.70;6.07;;;0.20;74.60;;;;;;5115396;28;20074;-73
2022/11/20 04:06:59;;;;;;;14.23;5.82;;;0.20;74.60;;;;;;5114853;28;20036;-73
2022/11/20 04:09:25;;;;;;;14.02;6.35;;;0.30;74.50;;;;;;5114609;28;20073;-73
2022/11/20 04:11:50;;;;;;;14.38;6.10;;;0.30;74.10;;;;;;5114492;28;20027;-73
2022/11/20 04:14:17;;;;;;;13.73;6.13;;;0.30;74.10;;;;;;5114555;28;20047;-73
2022/11/20 04:16:42;;;;;;;13.50;6.40;;;0.30;74.10;;;;;;5115417;28;20528;-73
2022/11/20 04:19:13;;;;;;;13.45;6.18;;;0.20;74.10;;;;;;5115528;28;20032;-73
2022/11/20 04:21:39;;;;;;;12.30;5.68;;;0.20;74.40;;;;;;5115335;28;20028;-73
2022/11/20 04:24:06;;;;;;;12.82;5.57;;;0.20;74.40;;;;;;5115210;28;20058;-73
2022/11/20 04:26:31;;;;;;;13.07;6.75;;;0.30;74.40;;;;;;5115241;28;20028;-73
2022/11/20 04:28:58;;;;;;;10.43;4.93;;;0.30;74.30;;;;;;5115175;28;20028;-73
2022/11/20 04:31:30;;;;;;;11.98;5.80;;;0.20;74.10;;;;;;5114288;28;20051;-73
2022/11/20 04:33:58;;;;;;;11.90;6.17;;;0.20;74.30;;;;;;5115130;28;20111;-73
2022/11/20 04:36:25;;;;;;;10.10;5.25;;;0.20;74.20;;;;;;5115030;28;20281;-73
2022/11/20 04:39:03;;;;;;;13.18;6.60;;;0.20;74.10;;;;;;5115001;28;20032;-73
2022/11/20 04:41:31;;;;;;;16.55;6.15;;;0.20;74.30;;;;;;5114994;28;20035;-73
2022/11/20 04:44:02;;;;;;;10.82;5.50;;;0.10;74.40;;;;;;5096828;28;20039;-73
2022/11/20 04:46:29;;;;;;;13.52;5.65;;;0.10;74.70;;;;;;5113847;28;20027;-73
2022/11/20 04:48:55;;;;;;;11.52;6.45;;;0.10;74.80;;;;;;5114823;28;20029;-73
2022/11/20 04:51:21;;;;;;;13.95;6.28;;;0.20;74.50;;;;;;5114746;28;20025;-73
2022/11/20 04:53:46;;;;;;;11.68;6.03;;;0.10;74.10;;;;;;5114720;28;20079;-73
2022/11/20 04:56:13;;;;;;;10.70;5.82;;;0.10;74.50;;;;;;5113694;28;20032;-73
2022/11/20 04:58:39;;;;;;;14.38;6.60;;;0.20;74.30;;;;;;5114600;28;20020;-73
2022/11/20 05:01:25;;;;;;;11.82;6.00;;;0.20;74.10;;;;;;5114568;28;20078;-73
2022/11/20 05:03:51;;;;;;;15.15;6.53;;;0.10;74.10;;;;;;5114141;28;20487;-73
2022/11/20 05:06:20;;;;;;;13.60;5.65;;;0.00;74.60;;;;;;5114374;28;20044;-73
2022/11/20 05:08:45;;;;;;;11.20;5.65;;;0.00;74.90;;;;;;5113645;28;20042;-73
2022/11/20 05:11:14;;;;;;;12.93;6.60;;;0.10;74.80;;;;;;5113375;28;20500;-73
2022/11/20 05:13:40;;;;;;;9.70;5.82;;;0.10;74.60;;;;;;5114300;28;20020;-73
2022/11/20 05:16:14;;;;;;;11.38;5.78;;;0.10;74.10;;;;;;5114309;28;20036;-73
2022/11/20 05:18:40;;;;;;;12.68;5.55;;;0.00;74.10;;;;;;5114241;28;20076;-73
2022/11/20 05:21:07;;;;;;;15.18;6.07;;;0.00;74.70;;;;;;5114238;28;20066;-73
2022/11/20 05:23:33;;;;;;;14.68;5.80;;;-0.10;74.60;;;;;;5114084;28;20020;-73
2022/11/20 05:25:59;;;;;;;12.93;5.70;;;-0.10;75.00;;;;;;5114132;28;20098;-73
2022/11/20 05:28:26;;;;;;;13.52;5.68;;;-0.20;74.60;;;;;;5114088;28;20032;-73
2022/11/20 05:30:52;;;;;;;13.30;5.90;;;-0.20;74.90;;;;;;5114015;28;20079;-73
2022/11/20 05:33:18;;;;;;;12.82;6.07;;;-0.20;74.70;;;;;;5114017;28;20035;-73
2022/11/20 05:35:43;;;;;;;11.80;4.97;;;-0.20;74.50;;;;;;5113935;28;20028;-73
2022/11/20 05:38:09;;;;;;;12.23;5.55;;;-0.20;74.40;;;;;;5113931;28;20024;-73
2022/11/20 05:40:35;;;;;;;11.20;5.30;;;-0.20;74.20;;;;;;5113889;28;20039;-73
2022/11/20 05:43:01;;;;;;;10.45;5.15;;;-0.40;73.50;;;;;;5113845;28;20020;-73
2022/11/20 05:45:27;;;;;;;12.57;5.68;;;-0.50;74.50;;;;;;5113734;28;20028;-73
2022/11/20 05:47:53;;;;;;;12.50;5.60;;;-0.60;74.00;;;;;;5113742;28;20050;-73
2022/11/20 05:50:19;;;;;;;11.50;6.18;;;-0.60;74.30;;;;;;5113700;28;20039;-73
2022/11/20 05:52:44;;;;;;;14.05;6.13;;;-0.60;74.30;;;;;;5112742;28;20024;-73
2022/11/20 05:55:10;;;;;;;10.25;6.32;;;-0.70;74.20;;;;;;5095791;28;20032;-73
2022/11/20 05:57:35;;;;;;;8.50;5.22;;;-0.80;75.00;;;;;;5113653;28;20028;-73
2022/11/20 06:00:02;;;;;;;13.77;5.50;;;-0.70;76.20;;;;;;5112734;28;20035;-72
2022/11/20 06:02:28;;;;;;;11.88;5.60;;;-0.70;75.40;;;;;;5113517;28;20035;-72
2022/11/20 06:04:53;;;;;;;14.23;6.50;;;-0.70;75.80;;;;;;5113310;28;20048;-73
2022/11/20 06:07:19;;;;;;;14.57;6.18;;;-0.70;76.20;;;;;;5113536;28;20045;-73
2022/11/20 06:09:44;;;;;;;10.98;5.25;;;-0.50;76.30;;;;;;5112597;28;20127;-73
2022/11/20 06:12:10;;;;;;;9.88;4.93;;;-0.50;75.90;;;;;;5112457;28;20028;-73
2022/11/20 06:14:35;;;;;;;13.73;6.43;;;-0.50;75.80;;;;;;5113455;28;20028;-73
2022/11/20 06:17:01;;;;;;;12.40;6.03;;;-0.50;75.60;;;;;;5113412;28;20028;-73
2022/11/20 06:19:27;;;;;;;9.68;4.80;;;-0.50;75.60;;;;;;5112559;28;20043;-73
2022/11/20 06:21:52;;;;;;;15.15;6.07;;;-0.50;75.20;;;;;;5117411;28;20028;-73
2022/11/20 06:24:18;;;;;;;13.70;5.80;;;-0.40;75.30;;;;;;5117519;28;20040;-73
2022/11/20 06:26:44;;;;;;;20.77;5.63;;;-0.50;75.10;;;;;;5117528;28;20024;-73
2022/11/20 06:29:10;;;;;;;13.45;5.78;;;-0.50;75.20;;;;;;5116559;28;20026;-73
2022/11/20 06:31:37;;;;;;;10.35;5.93;;;-0.40;74.80;;;;;;5117461;28;20056;-73
2022/11/20 06:34:04;;;;;;;12.82;5.60;;;-0.40;75.50;;;;;;5116372;28;20032;-73
2022/11/20 06:36:30;;;;;;;11.68;5.22;;;-0.40;75.00;;;;;;5117352;28;20032;-72
2022/11/20 06:38:55;;;;;;;12.23;6.10;;;-0.30;75.00;;;;;;5117344;28;20024;-72
2022/11/20 06:41:22;;;;;;;13.68;5.63;;;-0.40;74.90;;;;;;5117297;28;20452;-73
2022/11/20 06:43:48;;;;;;;13.70;5.97;;;-0.40;74.90;;;;;;5117172;28;20028;-72
2022/11/20 06:46:17;;;;;;;12.18;6.57;;;-0.30;74.90;;;;;;5117183;28;20044;-72
2022/11/20 06:48:43;;;;;;;15.40;6.88;;;-0.30;74.50;;;;;;5116125;28;20048;-72
2022/11/20 06:51:09;;;;;;;11.95;5.18;;;-0.30;74.60;;;;;;5117056;28;20058;-72
2022/11/20 06:53:35;;;;;;;12.50;6.40;;;-0.30;74.40;;;;;;5117030;28;20083;-73
2022/11/20 06:56:01;;;;;;;15.10;5.88;;;-0.40;74.50;;;;;;5116092;28;20044;-73
2022/11/20 06:58:28;;;;;;;11.65;5.72;;;-0.50;74.90;;;;;;5115851;28;20074;-73
2022/11/20 07:00:58;;;;;;;11.57;5.47;;;-0.50;75.30;;;;;;5116859;28;20111;-73
2022/11/20 07:03:23;;;;;;;10.98;5.68;;;-0.50;76.10;;;;;;5115715;28;20052;-73
2022/11/20 07:05:49;;;;;;;14.68;6.60;;;-0.40;75.40;;;;;;5116581;28;20059;-73
2022/11/20 07:08:14;;;;;;;13.73;5.70;;;-0.40;75.20;;;;;;5116678;28;20054;-73
2022/11/20 07:10:40;;;;;;;13.02;6.03;;;-0.30;75.00;;;;;;5115806;28;20087;-73
2022/11/20 07:13:06;;;;;;;10.30;4.55;;;-0.40;74.80;;;;;;5116664;28;20032;-73
2022/11/20 07:15:32;;;;;;;13.90;6.43;;;-0.40;74.80;;;;;;5098787;28;20024;-73
2022/11/20 07:18:01;;;;;;;12.77;5.22;;;-0.40;74.90;;;;;;5116575;28;20375;-73
2022/11/20 07:20:27;;;;;;;12.60;5.47;;;-0.30;75.00;;;;;;5116513;28;20054;-73
2022/11/20 07:22:54;;;;;;;12.82;6.28;;;-0.40;75.00;;;;;;5115466;28;20019;-73
2022/11/20 07:25:20;;;;;;;15.40;7.10;;;-0.40;75.10;;;;;;5115322;28;20092;-73
2022/11/20 07:27:45;;;;;;;12.10;5.50;;;-0.30;75.20;;;;;;5098369;28;20033;-72
2022/11/20 07:30:12;;;;;;;11.95;5.35;;;-0.40;75.00;;;;;;5115451;28;20043;-72
2022/11/20 07:32:37;;;;;;;12.23;6.18;;;-0.50;75.50;;;;;;5115626;28;20027;-73
2022/11/20 07:35:03;;;;;;;15.32;5.93;;;-0.50;76.00;;;;;;5116142;28;20032;-72
2022/11/20 07:37:29;;;;;;;15.00;6.65;;;-0.60;76.60;;;;;;5115227;28;20040;-73
2022/11/20 07:39:54;;;;;;;12.90;6.07;;;-0.50;76.70;;;;;;5116105;28;20043;-73
2022/11/20 07:42:20;;;;;;;15.15;6.45;;;-0.40;76.90;;;;;;5115997;28;20043;-72
2022/11/20 07:44:45;;;;;;;17.48;7.03;;;-0.40;76.90;;;;;;5115895;28;20024;-73
2022/11/20 07:47:11;;;;;;;12.45;6.25;;;-0.40;77.20;;;;;;5116025;28;20491;-73
2022/11/20 07:49:36;;;;;;;12.98;6.30;;;-0.40;77.20;;;;;;5115107;28;20031;-72
2022/11/20 07:52:02;;;;;;;11.40;7.03;;;-0.30;77.80;;;;;;5098046;28;20020;-73
2022/11/20 07:54:28;;;;;;;14.43;6.43;;;-0.30;78.20;;;;;;5115647;28;20032;-73
2022/11/20 07:56:54;;;;;;;13.43;7.00;;;-0.30;78.20;;;;;;5114797;28;20050;-73
2022/11/20 07:59:19;;;;;;;11.05;6.60;;;-0.30;78.40;;;;;;5115775;28;20536;-73
2022/11/20 08:01:45;;;;;;;16.92;7.18;;;-0.20;78.60;;;;;;5114667;28;20028;-73
2022/11/20 08:04:11;;;;;;;14.30;6.70;;;-0.20;78.90;;;;;;5097662;28;20099;-73
2022/11/20 08:06:36;;;;;;;14.27;6.75;;;-0.20;79.10;;;;;;5114563;28;20041;-72
2022/11/20 08:09:03;;;;;;;18.17;7.65;;;-0.20;79.70;;;;;;5115540;28;20039;-73
2022/11/20 08:14:13;;;;;;;17.58;6.65;;;0.00;79.10;;;;;;5115755;28;20034;-72
2022/11/20 08:16:47;;;;;;;17.95;7.75;;;0.10;78.90;;;;;;5115495;28;20028;-73
2022/11/20 08:19:14;;;;;;;13.27;6.85;;;0.20;79.20;;;;;;5115438;28;20024;-72
2022/11/20 08:21:40;;;;;;;13.82;6.60;;;0.10;79.80;;;;;;5114440;28;20031;-72
2022/11/20 08:24:06;;;;;;;18.40;7.55;;;0.10;79.20;;;;;;5114332;28;20379;-72
2022/11/20 08:26:34;;;;;;;18.77;8.13;;;0.20;79.10;;;;;;5114304;28;20444;-72
2022/11/20 08:28:59;;;;;;;16.25;7.93;;;0.30;79.20;;;;;;5114181;28;20020;-72
2022/11/20 08:31:26;;;;;;;14.30;7.53;;;0.40;80.20;;;;;;5114158;28;20101;-72
2022/11/20 08:33:52;;;;;;;20.05;8.57;;;0.40;80.40;;;;;;5114150;28;20032;-73
2022/11/20 08:36:19;;;;;;;21.02;9.57;;;0.40;80.60;;;;;;5114023;28;20032;-73
2022/11/20 08:38:49;;;;;;;18.67;7.68;;;0.50;80.80;;;;;;5114964;28;20024;-72
2022/11/20 08:41:23;;;;;;;21.27;8.63;;;0.50;81.10;;;;;;5114980;28;20087;-73
2022/11/20 08:44:00;;;;;;;18.52;7.97;;;0.50;81.40;;;;;;5113933;28;20043;-73
2022/11/20 08:46:30;;;;;;;19.35;8.52;;;0.60;81.20;;;;;;5114919;28;20024;-73
2022/11/20 08:48:56;;;;;;;19.30;9.23;;;0.70;82.30;;;;;;5114864;28;20020;-73
2022/11/20 08:51:21;;;;;;;20.23;9.45;;;0.70;81.60;;;;;;5113826;28;20032;-73
2022/11/20 08:53:48;;;;;;;19.52;9.40;;;0.80;81.20;;;;;;5114763;28;20051;-72
2022/11/20 08:56:14;;;;;;;18.60;8.77;;;0.90;81.30;;;;;;5114840;28;20028;-72
2022/11/20 08:58:39;;;;;;;20.05;9.15;;;0.90;81.30;;;;;;5114620;28;20045;-73
2022/11/20 09:01:05;;;;;;;21.38;8.80;;;0.90;82.50;;;;;;5113758;28;20509;-73
2022/11/20 09:03:31;;;;;;;16.25;8.20;;;1.00;81.90;;;;;;5113545;28;20044;-73
2022/11/20 09:05:58;;;;;;;18.92;8.90;;;1.00;81.80;;;;;;5114322;28;20052;-73
2022/11/20 09:08:24;;;;;;;21.20;9.30;;;1.00;81.70;;;;;;5114365;28;20083;-73
2022/11/20 09:10:54;;;;;;;21.25;8.98;;;1.10;82.20;;;;;;5113518;28;20020;-73
2022/11/20 09:13:21;;;;;;;21.60;9.45;;;1.10;82.10;;;;;;5114378;28;20032;-73
2022/11/20 09:15:47;;;;;;;18.35;8.60;;;1.10;82.10;;;;;;5114313;28;20031;-73
2022/11/20 09:18:13;;;;;;;20.95;9.18;;;1.20;82.10;;;;;;5113387;28;20092;-73
2022/11/20 09:20:38;;;;;;;19.50;8.25;;;1.20;82.10;;;;;;5113184;28;20099;-73
2022/11/20 09:23:04;;;;;;;24.90;9.65;;;1.20;81.80;;;;;;5113360;28;20031;-73
2022/11/20 09:25:29;;;;;;;16.85;9.45;;;1.20;81.80;;;;;;5114068;28;20039;-73
2022/11/20 09:27:59;;;;;;;18.20;8.35;;;1.30;82.10;;;;;;5114112;28;20024;-73
2022/11/20 09:30:26;;;;;;;22.65;9.57;;;1.30;82.60;;;;;;5113111;28;20016;-73
2022/11/20 09:32:51;;;;;;;23.08;10.73;;;1.30;82.30;;;;;;5114059;28;20333;-73
2022/11/20 09:35:17;;;;;;;22.88;10.57;;;1.40;82.90;;;;;;5096025;28;20051;-73
2022/11/20 09:37:44;;;;;;;23.85;10.82;;;1.40;82.80;;;;;;5113940;28;20107;-73
2022/11/20 09:40:29;;;;;;;19.75;9.27;;;1.50;82.90;;;;;;5113932;28;20028;-73
2022/11/20 09:43:06;;;;;;;22.13;10.10;;;1.50;83.60;;;;;;5113702;28;20044;-73
2022/11/20 09:45:59;;;;;;;24.95;11.32;;;1.50;82.90;;;;;;5113897;28;20020;-73
2022/11/20 09:48:43;;;;;;;21.33;10.32;;;1.60;82.90;;;;;;5072227;28;20067;-73
2022/11/20 09:51:25;;;;;;;22.77;11.30;;;1.60;84.00;;;;;;5113789;28;20024;-73
2022/11/20 09:54:14;;;;;;;19.85;8.88;;;1.50;84.10;;;;;;5113913;28;20050;-73
2022/11/20 09:56:50;;;;;;;18.08;8.77;;;1.60;85.70;;;;;;5102391;28;20036;-73
2022/11/20 09:59:51;;;;;;;20.70;9.88;;;1.50;86.90;;;;;;5113704;28;20043;-73
2022/11/20 10:02:23;;;;;;;18.70;9.43;;;1.40;86.90;;;;;;5113669;28;20103;-73
2022/11/20 10:05:19;;;;;;;26.50;11.27;;;1.50;86.50;;;;;;5113414;28;20044;-73
2022/11/20 10:08:15;;;;;;;20.52;10.20;;;1.60;85.70;;;;;;5104494;28;20044;-73
2022/11/20 10:10:56;;;;;;;23.90;11.45;;;1.70;85.80;;;;;;5104495;28;20054;-74
2022/11/20 10:13:52;;;;;;;23.95;10.57;;;1.70;85.40;;;;;;5113685;28;20027;-73
2022/11/20 10:16:44;;;;;;;23.50;10.65;;;1.80;86.00;;;;;;5113677;28;20017;-73
2022/11/20 10:19:18;;;;;;;22.58;11.15;;;1.90;85.70;;;;;;5113607;28;20028;-73
2022/11/20 10:22:06;;;;;;;22.77;10.90;;;1.90;85.50;;;;;;5112507;28;20020;-73
2022/11/20 10:24:47;;;;;;;26.10;11.48;;;2.00;85.30;;;;;;5113401;28;20050;-74
2022/11/20 10:27:28;;;;;;;21.30;9.18;;;2.10;85.30;;;;;;5113436;28;20051;-74
2022/11/20 10:30:12;;;;;;;25.73;11.15;;;2.00;87.80;;;;;;5113531;28;20028;-74
2022/11/20 10:32:41;;;;;;;21.25;10.20;;;2.10;86.50;;;;;;5113258;28;20029;-74
2022/11/20 10:35:16;;;;;;;28.20;10.43;;;2.20;86.30;;;;;;5113316;28;20024;-74
2022/11/20 10:37:45;;;;;;;22.60;10.15;;;2.30;86.50;;;;;;5113268;28;20024;-73
2022/11/20 10:40:27;;;;;;;25.90;11.45;;;2.30;86.30;;;;;;5112218;28;20097;-74
2022/11/20 10:43:16;;;;;;;24.13;10.27;;;2.30;86.10;;;;;;5112328;28;20023;-74
2022/11/20 10:46:04;;;;;;;24.38;9.93;;;2.30;86.40;;;;;;5113336;28;20367;-74
2022/11/20 10:48:32;;;;;;;26.92;10.55;;;2.40;86.50;;;;;;5113231;28;20050;-74
2022/11/20 10:51:22;;;;;;;25.13;11.10;;;2.40;86.50;;;;;;5113186;28;20085;-74
2022/11/20 10:53:57;;;;;;;22.48;9.85;;;2.50;86.70;;;;;;5113292;28;20031;-74
2022/11/20 10:56:41;;;;;;;26.15;10.93;;;2.50;86.50;;;;;;5113123;28;20032;-74
2022/11/20 10:59:41;;;;;;;25.27;11.48;;;2.60;86.70;;;;;;5113181;28;20020;-74
2022/11/20 11:02:18;;;;;;;25.30;10.95;;;2.60;86.40;;;;;;5113211;28;20030;-74
2022/11/20 11:04:47;;;;;;;21.05;10.18;;;2.70;86.20;;;;;;5112799;28;20044;-74
2022/11/20 11:07:19;;;;;;;27.75;11.93;;;2.80;86.10;;;;;;5114118;28;20104;-74
2022/11/20 11:09:51;;;;;;;25.27;12.70;;;2.80;87.70;;;;;;5116758;28;20024;-74
2022/11/20 11:12:18;;;;;;;30.60;13.02;;;2.80;87.20;;;;;;5116949;28;20020;-74
2022/11/20 11:14:49;;;;;;;25.27;12.95;;;2.90;86.90;;;;;;5116700;28;20024;-74
2022/11/20 11:17:32;;;;;;;28.98;12.88;;;2.90;87.20;;;;;;5116680;28;20031;-74
2022/11/20 11:20:02;;;;;;;28.40;12.65;;;3.00;87.40;;;;;;5116629;28;20028;-74
2022/11/20 11:22:30;;;;;;;28.05;13.23;;;3.00;87.70;;;;;;5115691;28;20020;-74
2022/11/20 11:24:56;;;;;;;30.75;13.25;;;3.00;88.00;;;;;;5116459;28;20052;-74
2022/11/20 11:27:21;;;;;;;29.77;14.63;;;3.00;88.10;;;;;;5115540;28;20039;-74
2022/11/20 11:29:47;;;;;;;28.83;13.27;;;3.00;88.20;;;;;;5115416;28;20031;-75
2022/11/20 11:32:21;;;;;;;33.17;13.02;;;3.10;88.00;;;;;;5115490;28;20028;-75
2022/11/20 11:35:03;;;;;;;35.80;14.57;;;3.10;89.00;;;;;;5116358;28;20016;-75
2022/11/20 11:37:38;;;;;;;;;;;3.20;89.30;;;;;;5116884;28;20088;-74
2022/11/20 11:40:06;;;;;;;29.58;12.95;;;3.20;89.40;;;;;;5116418;28;19904;-74
2022/11/20 11:42:33;;;;;;;29.92;12.70;;;3.20;89.30;;;;;;5115126;28;20020;-74
2022/11/20 11:45:06;;;;;;;30.98;12.70;;;3.20;90.10;;;;;;5116041;28;20032;-74
2022/11/20 11:47:35;;;;;;;35.80;14.57;;;3.20;89.40;;;;;;5116228;28;20049;-74
2022/11/20 11:50:22;;;;;;;40.38;13.40;;;3.20;89.30;;;;;;5116024;28;20028;-75
2022/11/20 11:52:54;;;;;;;29.95;12.40;;;3.30;89.40;;;;;;5115892;28;20087;-74
2022/11/20 11:55:35;;;;;;;29.15;12.35;;;3.30;89.40;;;;;;5115866;28;20031;-74
2022/11/20 11:58:11;;;;;;;29.83;12.85;;;3.30;89.40;;;;;;5116008;28;20024;-74
2022/11/20 12:00:41;;;;;;;32.95;13.55;;;3.40;89.80;;;;;;5114924;28;20042;-74
2022/11/20 12:03:24;;;;;;;35.95;14.15;;;3.40;89.40;;;;;;5115896;28;20020;-74
2022/11/20 12:05:56;;;;;;;36.30;15.45;;;3.50;89.40;;;;;;5115445;28;20044;-74
2022/11/20 12:08:51;;;;;;;36.47;14.05;;;3.60;90.00;;;;;;5115645;28;20028;-74
2022/11/20 12:11:29;;;;;;;35.72;15.68;;;3.50;89.70;;;;;;5115683;28;20050;-74
2022/11/20 12:14:03;;;;;;;32.85;13.30;;;3.50;90.10;;;;;;5115734;28;20029;-74
2022/11/20 12:16:34;;;;;;;33.70;14.00;;;3.50;90.20;;;;;;5115557;28;20020;-74
2022/11/20 12:19:00;;;;;;;33.88;14.13;;;3.60;90.20;;;;;;5115313;28;20020;-74
2022/11/20 12:21:37;;;;;;;33.47;13.48;;;3.60;90.10;;;;;;5115398;28;20036;-74
2022/11/20 12:24:42;;;;;;;30.25;13.70;;;3.60;90.70;;;;;;5114335;28;20028;-75
2022/11/20 12:27:14;;;;;;;38.08;14.43;;;3.60;90.70;;;;;;5114327;28;20086;-74
2022/11/20 12:29:51;;;;;;;38.80;14.15;;;3.60;90.50;;;;;;5114280;28;20115;-74
2022/11/20 12:32:34;;;;;;;33.58;13.15;;;3.70;90.70;;;;;;5115328;28;20028;-74
2022/11/20 12:35:24;;;;;;;;;;;3.70;90.60;;;;;;5115673;28;20036;-74
2022/11/20 12:38:14;;;;;;;35.65;13.38;;;3.70;90.80;;;;;;5115126;28;19904;-74
2022/11/20 12:40:39;;;;;;;37.42;13.02;;;3.70;90.90;;;;;;5115034;28;20032;-74
2022/11/20 12:46:21;;;;;;;34.95;13.98;;;3.80;91.20;;;;;;5115189;28;20100;-74
2022/11/20 12:49:01;;;;;;;40.45;15.00;;;3.90;91.00;;;;;;5115018;28;20043;-74
2022/11/20 12:51:57;;;;;;;34.10;13.02;;;3.90;91.10;;;;;;5114990;28;20019;-74
2022/11/20 12:54:47;;;;;;;39.00;13.68;;;3.90;90.80;;;;;;5113745;28;20066;-74
2022/11/20 12:57:15;;;;;;;38.67;14.45;;;4.00;90.70;;;;;;5114765;28;20028;-74
2022/11/20 13:00:04;;;;;;;41.22;14.65;;;4.00;90.80;;;;;;5114638;28;20031;-74
2022/11/20 13:02:55;;;;;;;45.22;15.02;;;4.00;91.00;;;;;;5113644;28;20028;-75
2022/11/20 13:05:30;;;;;;;49.95;17.38;;;4.00;91.20;;;;;;5114057;28;20040;-74